createdAt,value
2019-04-21T00:01:46.915Z,98324.98
2019-04-21T00:04:24.859Z,98318.55
2019-04-21T00:07:05.877Z,98321.42
2019-04-21T00:09:40.046Z,98318.61
2019-04-21T00:12:02.470Z,98315.22
2019-04-21T00:14:27.553Z,98307.45
2019-04-21T00:16:55.569Z,98307.09
2019-04-21T00:19:39.505Z,98297.62
2019-04-21T00:22:23.212Z,98297.83
2019-04-21T00:24:56.819Z,98295.91
2019-04-21T00:27:28.528Z,98292.17
2019-04-21T00:30:04.508Z,98292.06
2019-04-21T00:32:28.176Z,98289.33
2019-04-21T00:34:52.251Z,98293.42
2019-04-21T00:37:24.137Z,98296.01
2019-04-21T00:40:03.689Z,98295.05
2019-04-21T00:42:37.393Z,98296.31
2019-04-21T00:45:01.872Z,98290.96
2019-04-21T00:47:43.139Z,98288.16
2019-04-21T00:50:20.552Z,98282.15
2019-04-21T00:52:56.617Z,98283.57
2019-04-21T00:55:29.410Z,98281.57
2019-04-21T00:58:00.076Z,98278.68
2019-04-21T01:00:22.258Z,98279.22
2019-04-21T01:02:57.631Z,98272.37
2019-04-21T01:05:26.749Z,98273.30
2019-04-21T01:07:50.335Z,98276.09
2019-04-21T01:10:21.002Z,98271.13
2019-04-21T01:13:00.533Z,98263.70
2019-04-21T01:18:01.503Z,98264.80
2019-04-21T01:20:16.732Z,98266.57
2019-04-21T01:22:39.423Z,98262.19
2019-04-21T01:25:19.018Z,98260.49
2019-04-21T01:27:53.912Z,98260.49
2019-04-21T01:30:28.569Z,98269.65
2019-04-21T01:33:00.080Z,98257.95
2019-04-21T01:35:35.428Z,98258.88
2019-04-21T01:38:03.083Z,98251.49
2019-04-21T01:40:37.663Z,98251.22
2019-04-21T01:43:04.807Z,98247.65
2019-04-21T01:45:35.241Z,98250.03
2019-04-21T01:48:01.182Z,98242.44
2019-04-21T01:50:39.307Z,98246.16
2019-04-21T01:53:17.318Z,98237.24
2019-04-21T01:56:04.914Z,98239.66
2019-04-21T01:58:25.688Z,98230.84
2019-04-21T02:01:00.886Z,98236.39
2019-04-21T02:06:19.478Z,98236.66
2019-04-21T02:08:36.413Z,98233.34
2019-04-21T02:13:46.785Z,98226.86
2019-04-21T02:16:11.326Z,98228.70
2019-04-21T02:18:39.387Z,98228.77
2019-04-21T02:21:00.397Z,98224.92
2019-04-21T02:26:16.075Z,98218.95
2019-04-21T02:28:51.726Z,98222.17
2019-04-21T02:31:28.967Z,98223.88
2019-04-21T02:36:39.725Z,98223.59
2019-04-21T02:41:32.725Z,98218.20
2019-04-21T02:44:04.018Z,98213.92
2019-04-21T02:46:36.270Z,98208.84
2019-04-21T02:51:33.673Z,98212.17
2019-04-21T02:54:32.330Z,98206.17
2019-04-21T02:56:35.229Z,98208.11
2019-04-21T02:59:10.891Z,98201.83
2019-04-21T03:02:04.087Z,98201.98
2019-04-21T03:04:34.774Z,98201.59
2019-04-21T03:12:22.552Z,98190.75
2019-04-21T03:15:03.956Z,98188.08
2019-04-21T03:20:03.020Z,98191.45
2019-04-21T03:30:18.923Z,98188.00
2019-04-21T03:33:08.988Z,98187.61
2019-04-21T03:40:07.995Z,98188.70
2019-04-21T03:45:15.956Z,98178.48
2019-04-21T03:47:39.569Z,98178.13
2019-04-21T03:50:29.681Z,98173.50
2019-04-21T03:52:45.665Z,98169.77
2019-04-21T04:03:35.379Z,98177.24
2019-04-21T04:11:43.794Z,98168.73
2019-04-21T04:14:33.504Z,98170.35
2019-04-21T04:17:06.443Z,98175.25
2019-04-21T04:19:34.584Z,98168.80
2019-04-21T04:22:09.364Z,98171.12
2019-04-21T04:26:45.399Z,98170.95
2019-04-21T04:29:19.250Z,98171.27
2019-04-21T04:31:42.743Z,98167.74
2019-04-21T04:34:24.479Z,98174.09
2019-04-21T04:45:04.334Z,98179.70
2019-04-21T04:52:27.818Z,98173.92
2019-04-21T04:57:28.400Z,98167.30
2019-04-21T04:59:49.600Z,98168.74
2019-04-21T05:02:28.077Z,98167.25
2019-04-21T05:05:11.487Z,98168.48
2019-04-21T05:07:27.359Z,98173.97
2019-04-21T05:09:57.556Z,98167.31
2019-04-21T05:12:38.475Z,98169.91
2019-04-21T05:15:09.675Z,98174.16
2019-04-21T05:17:50.829Z,98173.13
2019-04-21T05:22:47.683Z,98175.64
2019-04-21T05:25:06.917Z,98167.73
2019-04-21T05:27:43.824Z,98174.80
2019-04-21T05:30:52.015Z,98173.45
2019-04-21T05:33:13.556Z,98172.10
2019-04-21T05:35:55.993Z,98168.40
2019-04-21T05:38:27.528Z,98167.88
2019-04-21T05:40:55.238Z,98164.00
2019-04-21T05:43:32.419Z,98166.66
2019-04-21T05:46:07.722Z,98165.34
2019-04-21T05:48:39.227Z,98168.73
2019-04-21T05:51:08.862Z,98159.55
2019-04-21T05:53:42.181Z,98166.11
2019-04-21T05:56:17.303Z,98164.89
2019-04-21T05:58:44.548Z,98165.81
2019-04-21T06:01:23.776Z,98165.34
2019-04-21T06:03:53.167Z,98164.34
2019-04-21T06:06:20.703Z,98161.98
2019-04-21T06:08:47.821Z,98159.13
2019-04-21T06:13:55.595Z,98159.61
2019-04-21T06:16:21.468Z,98157.20
2019-04-21T06:18:53.184Z,98151.89
2019-04-21T06:21:21.948Z,98148.30
2019-04-21T06:23:49.721Z,98147.20
2019-04-21T06:28:50.462Z,98146.59
2019-04-21T06:34:08.185Z,98140.30
2019-04-21T06:36:54.130Z,98145.46
2019-04-21T06:39:15.402Z,98141.59
2019-04-21T06:44:08.428Z,98149.16
2019-04-21T06:46:34.941Z,98145.55
2019-04-21T06:49:02.774Z,98142.52
2019-04-21T06:51:48.437Z,98150.08
2019-04-21T06:54:10.205Z,98143.86
2019-04-21T06:56:43.881Z,98139.75
2019-04-21T06:59:06.679Z,98144.22
2019-04-21T07:01:43.912Z,98138.14
2019-04-21T07:06:46.964Z,98142.92
2019-04-21T07:09:18.964Z,98145.02
2019-04-21T07:11:36.690Z,98136.02
2019-04-21T07:14:29.312Z,98134.61
2019-04-21T07:16:48.044Z,98129.85
2019-04-21T07:21:43.028Z,98133.02
2019-04-21T07:24:14.708Z,98127.45
2019-04-21T07:26:47.627Z,98124.20
2019-04-21T07:29:14.152Z,98129.16
2019-04-21T07:34:17.298Z,98120.78
2019-04-21T07:36:51.891Z,98117.46
2019-04-21T07:39:15.290Z,98121.17
2019-04-21T07:41:40.988Z,98118.99
2019-04-21T07:44:04.704Z,98115.03
2019-04-21T07:46:38.492Z,98114.20
2019-04-21T07:49:32.686Z,98120.00
2019-04-21T07:52:22.107Z,98115.74
2019-04-21T07:55:05.506Z,98118.03
2019-04-21T07:57:18.782Z,98119.73
2019-04-21T08:00:12.513Z,98114.52
2019-04-21T08:02:22.220Z,98118.00
2019-04-21T08:05:02.450Z,98115.29
2019-04-21T08:07:40.085Z,98106.86
2019-04-21T08:09:57.055Z,98103.37
2019-04-21T08:12:24.640Z,98104.39
2019-04-21T08:15:01.503Z,98111.60
2019-04-21T08:17:30.724Z,98104.96
2019-04-21T08:19:53.029Z,98106.34
2019-04-21T08:22:32.126Z,98106.64
2019-04-21T08:25:03.184Z,98106.78
2019-04-21T08:27:35.420Z,98106.28
2019-04-21T08:29:57.994Z,98100.93
2019-04-21T08:32:44.735Z,98100.23
2019-04-21T08:35:22.186Z,98099.06
2019-04-21T08:37:34.192Z,98100.61
2019-04-21T08:40:12.267Z,98091.08
2019-04-21T08:42:35.178Z,98090.98
2019-04-21T08:45:12.127Z,98095.02
2019-04-21T08:47:41.469Z,98086.78
2019-04-21T08:50:11.250Z,98079.16
2019-04-21T08:55:22.419Z,98076.28
2019-04-21T08:58:00.415Z,98070.30
2019-04-21T09:00:32.529Z,98069.72
2019-04-21T09:03:11.736Z,98069.05
2019-04-21T09:05:37.829Z,98062.88
2019-04-21T09:08:10.322Z,98063.17
2019-04-21T09:10:45.615Z,98062.38
2019-04-21T09:13:04.554Z,98063.38
2019-04-21T09:15:35.162Z,98064.52
2019-04-21T09:18:04.852Z,98062.30
2019-04-21T09:20:47.342Z,98064.18
2019-04-21T09:23:08.146Z,98056.83
2019-04-21T09:25:48.281Z,98057.38
2019-04-21T09:28:13.964Z,98057.17
2019-04-21T09:30:24.323Z,98049.02
2019-04-21T09:32:56.518Z,98043.50
2019-04-21T09:35:24.099Z,98040.66
2019-04-21T09:38:00.324Z,98045.80
2019-04-21T09:40:30.123Z,98040.46
2019-04-21T09:43:02.229Z,98039.09
2019-04-21T09:45:26.326Z,98025.44
2019-04-21T09:48:02.948Z,98026.19
2019-04-21T09:50:26.575Z,98031.36
2019-04-21T09:53:00.199Z,98029.73
2019-04-21T09:55:32.066Z,98022.25
2019-04-21T09:58:07.495Z,98019.87
2019-04-21T10:00:30.694Z,98014.66
2019-04-21T10:03:02.930Z,98012.20
2019-04-21T10:05:29.648Z,98014.91
2019-04-21T10:08:01.054Z,98004.67
2019-04-21T10:10:29.715Z,97998.59
2019-04-21T10:12:58.581Z,97993.88
2019-04-21T10:15:28.289Z,97993.69
2019-04-21T10:18:00.595Z,97993.78
2019-04-21T10:20:30.791Z,97991.67
2019-04-21T10:22:59.716Z,97985.66
2019-04-21T10:25:28.574Z,97987.84
2019-04-21T10:27:57.304Z,97977.55
2019-04-21T10:30:26.665Z,97976.75
2019-04-21T10:32:56.448Z,97972.26
2019-04-21T10:35:26.277Z,97966.09
2019-04-21T10:38:06.726Z,97965.89
2019-04-21T10:40:27.501Z,97964.78
2019-04-21T10:42:58.266Z,97959.30
2019-04-21T10:45:28.663Z,97951.88
2019-04-21T10:47:58.806Z,97952.41
2019-04-21T10:50:28.747Z,97954.36
2019-04-21T10:53:16.785Z,97951.56
2019-04-21T10:56:00.419Z,97944.79
2019-04-21T10:58:28.637Z,97943.03
2019-04-21T11:01:04.252Z,97936.61
2019-04-21T11:04:02.678Z,97930.05
2019-04-21T11:06:32.603Z,97925.03
2019-04-21T11:09:03.080Z,97923.03
2019-04-21T11:11:32.245Z,97923.62
2019-04-21T11:14:02.262Z,97921.27
2019-04-21T11:16:31.438Z,97918.45
2019-04-21T11:19:00.429Z,97910.72
2019-04-21T11:21:29.332Z,97912.23
2019-04-21T11:23:58.507Z,97909.20
2019-04-21T11:26:27.621Z,97908.63
2019-04-21T11:28:56.853Z,97908.30
2019-04-21T11:31:27.170Z,97899.91
2019-04-21T11:33:57.423Z,97904.52
2019-04-21T11:36:27.097Z,97896.83
2019-04-21T11:39:16.920Z,97896.15
2019-04-21T11:41:31.882Z,97897.44
2019-04-21T11:44:01.448Z,97891.81
2019-04-21T11:46:30.848Z,97892.14
2019-04-21T11:49:00.075Z,97884.59
2019-04-21T11:51:29.041Z,97880.02
2019-04-21T11:53:59.170Z,97874.39
2019-04-21T11:56:28.086Z,97868.49
2019-04-21T11:58:57.831Z,97862.91
2019-04-21T12:01:27.652Z,97861.86
2019-04-21T12:03:57.843Z,97854.88
2019-04-21T12:06:32.244Z,97857.84
2019-04-21T12:08:59.845Z,97853.53
2019-04-21T12:11:27.677Z,97857.16
2019-04-21T12:13:56.529Z,97852.88
2019-04-21T12:16:25.302Z,97857.47
2019-04-21T12:18:54.661Z,97852.06
2019-04-21T12:21:23.552Z,97851.15
2019-04-21T12:23:52.453Z,97841.63
2019-04-21T12:26:22.129Z,97844.05
2019-04-21T12:28:57.626Z,97834.31
2019-04-21T12:31:54.020Z,97835.04
2019-04-21T12:34:23.779Z,97829.90
2019-04-21T12:36:53.007Z,97826.53
2019-04-21T12:39:23.046Z,97817.30
2019-04-21T12:41:51.985Z,97817.62
2019-04-21T12:44:20.778Z,97811.25
2019-04-21T12:46:49.899Z,97816.64
2019-04-21T12:49:19.998Z,97809.88
2019-04-21T12:51:49.087Z,97809.77
2019-04-21T12:54:17.943Z,97794.97
2019-04-21T12:56:47.653Z,97787.00
2019-04-21T12:59:16.968Z,97786.75
2019-04-21T13:01:45.821Z,97787.14
2019-04-21T13:04:15.632Z,97781.75
2019-04-21T13:06:45.701Z,97772.17
2019-04-21T13:09:18.315Z,97771.16
2019-04-21T13:11:45.072Z,97765.55
2019-04-21T13:14:13.949Z,97763.48
2019-04-21T13:16:43.409Z,97761.38
2019-04-21T13:19:13.368Z,97758.57
2019-04-21T13:21:43.315Z,97754.51
2019-04-21T13:24:12.208Z,97749.78
2019-04-21T13:26:48.722Z,97744.20
2019-04-21T13:29:12.275Z,97739.25
2019-04-21T13:31:42.532Z,97734.72
2019-04-21T13:34:11.479Z,97733.31
2019-04-21T13:36:41.388Z,97733.18
2019-04-21T13:39:58.131Z,97729.87
2019-04-21T13:42:11.012Z,97722.06
2019-04-21T13:44:33.115Z,97728.17
2019-04-21T13:47:02.740Z,97723.41
2019-04-21T13:49:31.793Z,97719.58
2019-04-21T13:52:00.682Z,97721.37
2019-04-21T13:54:29.680Z,97708.86
2019-04-21T13:56:58.721Z,97706.28
2019-04-21T13:59:28.633Z,97698.98
2019-04-21T14:01:58.390Z,97695.51
2019-04-21T14:04:27.462Z,97689.31
2019-04-21T14:06:56.457Z,97683.30
2019-04-21T14:09:35.976Z,97691.34
2019-04-21T14:11:57.040Z,97682.16
2019-04-21T14:14:26.214Z,97688.34
2019-04-21T14:16:56.158Z,97683.58
2019-04-21T14:19:25.578Z,97684.78
2019-04-21T14:21:55.199Z,97680.29
2019-04-21T14:24:24.648Z,97678.20
2019-04-21T14:26:54.683Z,97671.39
2019-04-21T14:29:23.905Z,97674.95
2019-04-21T14:31:52.644Z,97677.98
2019-04-21T14:34:21.831Z,97666.87
2019-04-21T14:36:50.912Z,97666.46
2019-04-21T14:39:20.791Z,97666.09
2019-04-21T14:41:50.518Z,97656.90
2019-04-21T14:44:20.735Z,97657.51
2019-04-21T14:47:00.826Z,97653.71
2019-04-21T14:49:37.202Z,97654.41
2019-04-21T14:52:14.958Z,97646.83
2019-04-21T14:55:09.002Z,97651.67
2019-04-21T14:57:39.130Z,97641.52
2019-04-21T15:00:11.170Z,97641.25
2019-04-21T15:02:41.247Z,97637.04
2019-04-21T15:05:11.603Z,97633.16
2019-04-21T15:07:41.400Z,97638.41
2019-04-21T15:10:17.998Z,97639.62
2019-04-21T15:12:41.777Z,97631.82
2019-04-21T15:15:11.922Z,97628.95
2019-04-21T15:17:44.042Z,97619.66
2019-04-21T15:20:15.821Z,97623.09
2019-04-21T15:22:44.277Z,97621.00
2019-04-21T15:25:14.196Z,97618.32
2019-04-21T15:27:43.153Z,97616.47
2019-04-21T15:30:12.079Z,97616.77
2019-04-21T15:32:41.989Z,97605.77
2019-04-21T15:35:11.142Z,97607.71
2019-04-21T15:37:39.973Z,97602.35
2019-04-21T15:40:19.745Z,97604.98
2019-04-21T15:42:39.534Z,97603.53
2019-04-21T15:45:08.602Z,97602.66
2019-04-21T15:47:38.000Z,97590.60
2019-04-21T15:50:14.293Z,97590.14
2019-04-21T15:52:43.404Z,97581.44
2019-04-21T15:55:17.088Z,97584.48
2019-04-21T15:58:06.768Z,97582.79
2019-04-21T16:00:50.007Z,97580.57
2019-04-21T16:03:20.587Z,97580.25
2019-04-21T16:05:50.787Z,97574.08
2019-04-21T16:08:20.431Z,97578.44
2019-04-21T16:10:56.094Z,97577.07
2019-04-21T16:13:21.589Z,97574.03
2019-04-21T16:15:50.632Z,97572.91
2019-04-21T16:18:20.482Z,97566.47
2019-04-21T16:20:50.135Z,97566.53
2019-04-21T16:23:20.297Z,97564.94
2019-04-21T16:25:50.769Z,97565.20
2019-04-21T16:28:19.747Z,97558.47
2019-04-21T16:30:48.849Z,97559.98
2019-04-21T16:33:18.779Z,97550.88
2019-04-21T16:35:47.756Z,97552.20
2019-04-21T16:38:17.540Z,97550.22
2019-04-21T16:40:55.583Z,97549.09
2019-04-21T16:43:18.361Z,97544.16
2019-04-21T16:45:48.773Z,97539.92
2019-04-21T16:48:19.058Z,97540.33
2019-04-21T16:50:48.018Z,97536.20
2019-04-21T16:53:34.131Z,97533.11
2019-04-21T16:56:15.293Z,97530.34
2019-04-21T16:58:50.536Z,97532.27
2019-04-21T17:01:26.160Z,97527.86
2019-04-21T17:03:55.726Z,97519.88
2019-04-21T17:06:24.954Z,97519.62
2019-04-21T17:08:54.657Z,97520.87
2019-04-21T17:11:28.708Z,97515.03
2019-04-21T17:13:56.410Z,97514.41
2019-04-21T17:16:48.275Z,97514.84
2019-04-21T17:19:05.196Z,97508.56
2019-04-21T17:21:26.060Z,97512.95
2019-04-21T17:23:56.529Z,97508.84
2019-04-21T17:26:26.802Z,97508.36
2019-04-21T17:28:56.627Z,97514.16
2019-04-21T17:31:26.677Z,97506.50
2019-04-21T17:34:01.993Z,97507.41
2019-04-21T17:36:27.246Z,97508.97
2019-04-21T17:38:56.212Z,97506.72
2019-04-21T17:41:33.124Z,97511.16
2019-04-21T17:43:56.288Z,97511.27
2019-04-21T17:46:36.601Z,97502.34
2019-04-21T17:48:56.842Z,97508.17
2019-04-21T17:51:40.629Z,97508.70
2019-04-21T17:54:19.870Z,97507.08
2019-04-21T17:57:05.157Z,97514.09
2019-04-21T17:59:48.396Z,97515.75
2019-04-21T18:02:02.342Z,97521.75
2019-04-21T18:04:33.495Z,97517.94
2019-04-21T18:07:27.245Z,97522.94
2019-04-21T18:10:07.748Z,97522.26
2019-04-21T18:12:26.614Z,97524.59
2019-04-21T18:14:52.928Z,97524.05
2019-04-21T18:17:14.046Z,97528.70
2019-04-21T18:19:45.545Z,97523.73
2019-04-21T18:22:37.518Z,97529.19
2019-04-21T18:25:09.975Z,97528.37
2019-04-21T18:27:36.532Z,97528.65
2019-04-21T18:30:24.567Z,97524.66
2019-04-21T18:32:56.387Z,97525.81
2019-04-21T18:35:35.825Z,97522.29
2019-04-21T18:38:14.941Z,97531.58
2019-04-21T18:40:40.739Z,97528.73
2019-04-21T18:43:51.991Z,97531.19
2019-04-21T18:46:22.860Z,97533.13
2019-04-21T18:48:45.857Z,97531.41
2019-04-21T18:51:20.488Z,97535.52
2019-04-21T18:54:14.880Z,97534.64
2019-04-21T18:56:27.636Z,97535.42
2019-04-21T18:58:56.659Z,97533.55
2019-04-21T19:01:28.228Z,97537.03
2019-04-21T19:03:56.234Z,97540.66
2019-04-21T19:06:43.796Z,97542.73
2019-04-21T19:09:10.278Z,97541.69
2019-04-21T19:11:44.661Z,97543.37
2019-04-21T19:17:11.296Z,97540.32
2019-04-21T19:19:41.254Z,97539.70
2019-04-21T19:22:01.795Z,97540.81
2019-04-21T19:24:29.446Z,97544.16
2019-04-21T19:29:51.924Z,97543.11
2019-04-21T19:32:05.489Z,97541.98
2019-04-21T19:34:22.475Z,97544.05
2019-04-21T19:36:51.143Z,97542.14
2019-04-21T19:39:33.160Z,97540.16
2019-04-21T19:41:58.641Z,97539.50
2019-04-21T19:44:33.799Z,97538.77
2019-04-21T19:47:10.736Z,97543.83
2019-04-21T19:49:39.926Z,97534.81
2019-04-21T19:51:59.585Z,97536.55
2019-04-21T19:54:30.282Z,97537.03
2019-04-21T19:56:55.467Z,97528.91
2019-04-21T19:59:32.536Z,97527.64
2019-04-21T20:01:56.201Z,97521.98
2019-04-21T20:04:34.326Z,97526.04
2019-04-21T20:07:05.803Z,97530.67
2019-04-21T20:09:46.219Z,97532.08
2019-04-21T20:12:21.414Z,97530.39
2019-04-21T20:14:57.607Z,97528.18
2019-04-21T20:17:13.726Z,97530.06
2019-04-21T20:19:36.215Z,97524.50
2019-04-21T20:22:05.385Z,97522.16
2019-04-21T20:24:37.776Z,97525.89
2019-04-21T20:27:13.627Z,97525.80
2019-04-21T20:29:57.662Z,97520.92
2019-04-21T20:32:35.200Z,97522.25
2019-04-21T20:35:02.771Z,97522.57
2019-04-21T20:37:25.258Z,97522.80
2019-04-21T20:39:47.286Z,97517.71
2019-04-21T20:42:24.150Z,97520.80
2019-04-21T20:45:19.107Z,97521.02
2019-04-21T20:47:22.879Z,97523.59
2019-04-21T20:50:01.693Z,97518.40
2019-04-21T20:52:35.811Z,97516.24
2019-04-21T20:55:02.226Z,97517.60
2019-04-21T20:57:30.056Z,97511.63
2019-04-21T21:00:05.817Z,97513.47
2019-04-21T21:02:42.805Z,97509.70
2019-04-21T21:04:59.025Z,97516.21
2019-04-21T21:07:44.162Z,97513.50
2019-04-21T21:10:16.928Z,97513.06
2019-04-21T21:12:56.261Z,97514.05
2019-04-21T21:15:10.051Z,97509.30
2019-04-21T21:17:52.380Z,97508.27
2019-04-21T21:20:19.648Z,97520.09
2019-04-21T21:22:47.819Z,97515.58
2019-04-21T21:25:32.412Z,97518.61
2019-04-21T21:27:49.420Z,97524.75
2019-04-21T21:30:21.292Z,97521.64
2019-04-21T21:33:04.549Z,97524.08
2019-04-21T21:35:26.098Z,97523.48
2019-04-21T21:37:59.664Z,97524.11
2019-04-21T21:40:30.516Z,97526.62
2019-04-21T21:42:45.677Z,97520.91
2019-04-21T21:45:18.380Z,97521.53
2019-04-21T21:48:01.468Z,97516.63
2019-04-21T21:50:26.136Z,97515.23
2019-04-21T21:52:58.924Z,97520.88
2019-04-21T21:55:19.391Z,97519.08
2019-04-21T21:57:52.934Z,97522.84
2019-04-21T22:00:23.863Z,97519.28
2019-04-21T22:02:56.599Z,97523.22
2019-04-21T22:05:26.074Z,97516.19
2019-04-21T22:07:54.298Z,97517.91
2019-04-21T22:10:23.231Z,97516.73
2019-04-21T22:13:02.261Z,97516.27
2019-04-21T22:15:26.354Z,97516.94
2019-04-21T22:18:14.734Z,97512.42
2019-04-21T22:20:43.177Z,97511.84
2019-04-21T22:23:01.228Z,97506.83
2019-04-21T22:25:31.998Z,97506.96
2019-04-21T22:27:58.248Z,97508.77
2019-04-21T22:30:36.258Z,97508.77
2019-04-21T22:33:04.511Z,97505.56
2019-04-21T22:35:37.846Z,97503.17
2019-04-21T22:38:17.994Z,97504.86
2019-04-21T22:40:46.593Z,97506.29
2019-04-21T22:43:11.876Z,97505.67
2019-04-21T22:45:31.512Z,97505.09
2019-04-21T22:48:07.252Z,97504.14
2019-04-21T22:50:34.840Z,97504.48
2019-04-21T22:53:07.788Z,97506.63
2019-04-21T22:55:35.278Z,97500.43
2019-04-21T22:58:05.496Z,97505.56
2019-04-21T23:00:42.101Z,97507.35
2019-04-21T23:03:10.729Z,97498.02
2019-04-21T23:05:38.268Z,97503.15
2019-04-21T23:08:09.264Z,97499.80
2019-04-21T23:10:41.493Z,97498.37
2019-04-21T23:13:13.348Z,97495.63
2019-04-21T23:15:46.716Z,97498.11
2019-04-21T23:18:27.242Z,97498.35
2019-04-21T23:21:00.363Z,97493.57
2019-04-21T23:23:28.621Z,97489.16
2019-04-21T23:25:56.020Z,97486.74
2019-04-21T23:28:30.417Z,97494.49
2019-04-21T23:31:00.855Z,97494.70
2019-04-21T23:33:16.455Z,97491.35
2019-04-21T23:35:49.188Z,97487.30
2019-04-21T23:38:21.194Z,97492.97
2019-04-21T23:40:54.219Z,97488.55
2019-04-21T23:43:21.406Z,97489.27
2019-04-21T23:45:48.724Z,97488.63
2019-04-21T23:48:30.022Z,97485.89
2019-04-21T23:50:55.111Z,97481.80
2019-04-21T23:53:19.748Z,97477.38
2019-04-21T23:55:49.492Z,97477.25
2019-04-21T23:58:24.077Z,97448.09
